sensor_id;sensor_type;location;lat;lon;timestamp;pressure;altitude;pressure_sealevel;temperature;humidity
26719;BME280;14326;50.794;6.060;2023-05-08T00:00:02;100008.81;;;15.60;100.00
26719;BME280;14326;50.794;6.060;2023-05-08T00:02:35;100004.34;;;15.55;100.00
26719;BME280;14326;50.794;6.060;2023-05-08T00:05:16;100005.25;;;15.51;100.00
26719;BME280;14326;50.794;6.060;2023-05-08T00:07:43;100009.75;;;15.52;100.00
26719;BME280;14326;50.794;6.060;2023-05-08T00:10:10;100012.44;;;15.54;100.00
26719;BME280;14326;50.794;6.060;2023-05-08T00:12:46;100015.09;;;15.52;100.00
26719;BME280;14326;50.794;6.060;2023-05-08T00:15:14;100014.19;;;15.47;100.00
26719;BME280;14326;50.794;6.060;2023-05-08T00:17:41;100021.34;;;15.48;100.00
26719;BME280;14326;50.794;6.060;2023-05-08T00:20:09;100020.47;;;15.46;100.00
26719;BME280;14326;50.794;6.060;2023-05-08T00:22:40;100016.03;;;15.42;100.00
26719;BME280;14326;50.794;6.060;2023-05-08T00:25:28;100015.13;;;15.39;100.00
26719;BME280;14326;50.794;6.060;2023-05-08T00:28:26;100016.03;;;15.35;100.00
26719;BME280;14326;50.794;6.060;2023-05-08T00:30:59;100012.47;;;15.34;100.00
26719;BME280;14326;50.794;6.060;2023-05-08T00:33:27;100013.34;;;15.32;100.00
26719;BME280;14326;50.794;6.060;2023-05-08T00:35:58;100014.25;;;15.32;100.00
26719;BME280;14326;50.794;6.060;2023-05-08T00:38:24;100015.16;;;15.31;100.00
26719;BME280;14326;50.794;6.060;2023-05-08T00:40:51;100010.66;;;15.33;100.00
26719;BME280;14326;50.794;6.060;2023-05-08T00:43:18;100006.22;;;15.34;100.00
26719;BME280;14326;50.794;6.060;2023-05-08T00:45:50;100000.84;;;15.32;100.00
26719;BME280;14326;50.794;6.060;2023-05-08T00:48:18;100007.13;;;15.28;100.00
26719;BME280;14326;50.794;6.060;2023-05-08T00:51:07;100013.41;;;15.23;100.00
26719;BME280;14326;50.794;6.060;2023-05-08T00:54:02;100021.47;;;15.18;100.00
26719;BME280;14326;50.794;6.060;2023-05-08T00:57:15;100015.22;;;15.13;100.00
26719;BME280;14326;50.794;6.060;2023-05-08T01:00:10;100020.56;;;15.10;100.00
26719;BME280;14326;50.794;6.060;2023-05-08T01:02:42;100026.84;;;15.06;100.00
26719;BME280;14326;50.794;6.060;2023-05-08T01:05:10;100030.41;;;15.08;100.00
26719;BME280;14326;50.794;6.060;2023-05-08T01:10:52;100026.84;;;15.04;100.00
26719;BME280;14326;50.794;6.060;2023-05-08T01:13:39;100022.41;;;14.99;100.00
26719;BME280;14326;50.794;6.060;2023-05-08T01:16:36;100017.94;;;14.98;100.00
26719;BME280;14326;50.794;6.060;2023-05-08T01:19:26;100013.47;;;14.92;100.00
26719;BME280;14326;50.794;6.060;2023-05-08T01:22:18;100016.16;;;14.86;100.00
26719;BME280;14326;50.794;6.060;2023-05-08T01:31:34;100026.91;;;14.75;100.00
26719;BME280;14326;50.794;6.060;2023-05-08T01:37:48;100030.47;;;14.74;100.00
26719;BME280;14326;50.794;6.060;2023-05-08T01:40:27;100039.41;;;14.70;100.00
26719;BME280;14326;50.794;6.060;2023-05-08T01:43:05;100037.59;;;14.68;100.00
26719;BME280;14326;50.794;6.060;2023-05-08T01:45:51;100034.03;;;14.63;100.00
26719;BME280;14326;50.794;6.060;2023-05-08T01:48:36;100037.63;;;14.63;100.00
26719;BME280;14326;50.794;6.060;2023-05-08T01:54:43;100040.31;;;14.63;100.00
26719;BME280;14326;50.794;6.060;2023-05-08T01:57:24;100040.31;;;14.63;100.00
26719;BME280;14326;50.794;6.060;2023-05-08T01:59:56;100041.19;;;14.62;100.00
26719;BME280;14326;50.794;6.060;2023-05-08T02:02:25;100043.88;;;14.64;100.00
26719;BME280;14326;50.794;6.060;2023-05-08T02:04:54;100048.34;;;14.66;100.00
26719;BME280;14326;50.794;6.060;2023-05-08T02:07:23;100043.88;;;14.65;100.00
26719;BME280;14326;50.794;6.060;2023-05-08T02:10:12;100046.53;;;14.62;100.00
26719;BME280;14326;50.794;6.060;2023-05-08T02:13:09;100047.44;;;14.60;100.00
26719;BME280;14326;50.794;6.060;2023-05-08T02:16:10;100051.00;;;14.57;100.00
26719;BME280;14326;50.794;6.060;2023-05-08T02:19:08;100052.78;;;14.57;100.00
26719;BME280;14326;50.794;6.060;2023-05-08T02:21:52;100052.81;;;14.54;100.00
26719;BME280;14326;50.794;6.060;2023-05-08T02:24:38;100053.69;;;14.51;100.00
26719;BME280;14326;50.794;6.060;2023-05-08T02:27:29;100061.72;;;14.47;100.00
26719;BME280;14326;50.794;6.060;2023-05-08T02:30:23;100058.16;;;14.42;100.00
26719;BME280;14326;50.794;6.060;2023-05-08T02:33:18;100055.47;;;14.37;100.00
26719;BME280;14326;50.794;6.060;2023-05-08T02:36:00;100052.75;;;14.34;100.00
26719;BME280;14326;50.794;6.060;2023-05-08T02:38:44;100050.06;;;14.28;100.00
26719;BME280;14326;50.794;6.060;2023-05-08T02:41:29;100057.19;;;14.23;100.00
26719;BME280;14326;50.794;6.060;2023-05-08T02:43:57;100052.72;;;14.20;100.00
26719;BME280;14326;50.794;6.060;2023-05-08T02:46:27;100055.41;;;14.19;100.00
26719;BME280;14326;50.794;6.060;2023-05-08T02:48:59;100064.31;;;14.15;100.00
26719;BME280;14326;50.794;6.060;2023-05-08T02:51:36;100050.97;;;14.13;100.00
26719;BME280;14326;50.794;6.060;2023-05-08T02:54:09;100058.06;;;14.10;100.00
26719;BME280;14326;50.794;6.060;2023-05-08T02:56:41;100057.19;;;14.06;100.00
26719;BME280;14326;50.794;6.060;2023-05-08T02:59:13;100052.72;;;14.10;100.00
26719;BME280;14326;50.794;6.060;2023-05-08T03:01:48;100052.72;;;14.16;100.00
26719;BME280;14326;50.794;6.060;2023-05-08T03:04:23;100049.13;;;14.14;100.00
26719;BME280;14326;50.794;6.060;2023-05-08T03:06:51;100052.72;;;14.14;100.00
26719;BME280;14326;50.794;6.060;2023-05-08T03:09:20;100061.63;;;14.15;100.00
26719;BME280;14326;50.794;6.060;2023-05-08T03:11:57;100040.25;;;14.19;100.00
26719;BME280;14326;50.794;6.060;2023-05-08T03:14:27;100042.94;;;14.18;100.00
26719;BME280;14326;50.794;6.060;2023-05-08T03:16:56;100045.59;;;14.12;100.00
26719;BME280;14326;50.794;6.060;2023-05-08T03:19:27;100045.56;;;14.04;100.00
26719;BME280;14326;50.794;6.060;2023-05-08T03:21:57;100055.34;;;13.98;100.00
26719;BME280;14326;50.794;6.060;2023-05-08T03:24:25;100044.66;;;13.88;100.00
26719;BME280;14326;50.794;6.060;2023-05-08T03:26:54;100044.63;;;13.87;100.00
26719;BME280;14326;50.794;6.060;2023-05-08T03:29:35;100054.44;;;13.85;100.00
26719;BME280;14326;50.794;6.060;2023-05-08T03:32:29;100044.63;;;13.81;100.00
26719;BME280;14326;50.794;6.060;2023-05-08T03:35:22;100046.41;;;13.77;100.00
26719;BME280;14326;50.794;6.060;2023-05-08T03:37:54;100051.75;;;13.79;100.00
26719;BME280;14326;50.794;6.060;2023-05-08T03:40:20;100046.44;;;13.83;100.00
26719;BME280;14326;50.794;6.060;2023-05-08T03:42:48;100053.53;;;13.81;100.00
26719;BME280;14326;50.794;6.060;2023-05-08T03:45:16;100050.84;;;13.72;100.00
26719;BME280;14326;50.794;6.060;2023-05-08T03:47:45;100045.47;;;13.69;100.00
26719;BME280;14326;50.794;6.060;2023-05-08T03:50:14;100054.41;;;13.71;100.00
26719;BME280;14326;50.794;6.060;2023-05-08T03:53:08;100046.34;;;13.68;100.00
26719;BME280;14326;50.794;6.060;2023-05-08T03:55:37;100041.91;;;13.69;100.00
26719;BME280;14326;50.794;6.060;2023-05-08T03:58:20;100045.44;;;13.54;100.00
26719;BME280;14326;50.794;6.060;2023-05-08T04:00:58;100051.59;;;13.44;100.00
26719;BME280;14326;50.794;6.060;2023-05-08T04:03:35;100052.47;;;13.35;100.00
26719;BME280;14326;50.794;6.060;2023-05-08T04:06:10;100056.88;;;13.32;100.00
26719;BME280;14326;50.794;6.060;2023-05-08T04:08:40;100060.47;;;13.31;100.00
26719;BME280;14326;50.794;6.060;2023-05-08T04:11:11;100048.88;;;13.32;100.00
26719;BME280;14326;50.794;6.060;2023-05-08T04:13:48;100047.97;;;13.31;100.00
26719;BME280;14326;50.794;6.060;2023-05-08T04:16:40;100045.34;;;13.34;100.00
26719;BME280;14326;50.794;6.060;2023-05-08T04:19:28;100052.44;;;13.29;100.00
26719;BME280;14326;50.794;6.060;2023-05-08T04:22:05;100042.63;;;13.24;100.00
26719;BME280;14326;50.794;6.060;2023-05-08T04:24:34;100039.91;;;13.16;100.00
26719;BME280;14326;50.794;6.060;2023-05-08T04:27:03;100045.25;;;13.16;100.00
26719;BME280;14326;50.794;6.060;2023-05-08T04:29:31;100042.50;;;13.11;100.00
26719;BME280;14326;50.794;6.060;2023-05-08T04:31:59;100048.81;;;13.17;100.00
26719;BME280;14326;50.794;6.060;2023-05-08T04:34:27;100048.81;;;13.18;100.00
26719;BME280;14326;50.794;6.060;2023-05-08T04:36:54;100045.25;;;13.21;100.00
26719;BME280;14326;50.794;6.060;2023-05-08T04:39:21;100048.81;;;13.21;100.00
26719;BME280;14326;50.794;6.060;2023-05-08T04:41:47;100053.28;;;13.22;100.00
26719;BME280;14326;50.794;6.060;2023-05-08T04:44:16;100051.47;;;13.20;100.00
26719;BME280;14326;50.794;6.060;2023-05-08T04:46:44;100055.03;;;13.17;100.00
26719;BME280;14326;50.794;6.060;2023-05-08T04:49:11;100061.28;;;13.21;100.00
26719;BME280;14326;50.794;6.060;2023-05-08T04:51:46;100056.00;;;13.28;100.00
26719;BME280;14326;50.794;6.060;2023-05-08T04:54:13;100065.81;;;13.31;100.00
26719;BME280;14326;50.794;6.060;2023-05-08T04:56:39;100069.38;;;13.30;100.00
26719;BME280;14326;50.794;6.060;2023-05-08T05:02:18;100064.00;;;13.31;100.00
26719;BME280;14326;50.794;6.060;2023-05-08T05:04:58;100070.25;;;13.33;100.00
26719;BME280;14326;50.794;6.060;2023-05-08T05:07:39;100061.38;;;13.37;100.00
26719;BME280;14326;50.794;6.060;2023-05-08T05:10:11;100069.44;;;13.42;100.00
26719;BME280;14326;50.794;6.060;2023-05-08T05:12:40;100071.25;;;13.50;100.00
26719;BME280;14326;50.794;6.060;2023-05-08T05:15:08;100071.28;;;13.58;100.00
26719;BME280;14326;50.794;6.060;2023-05-08T05:17:36;100068.66;;;13.70;100.00
26719;BME280;14326;50.794;6.060;2023-05-08T05:20:03;100076.75;;;13.84;100.00
26719;BME280;14326;50.794;6.060;2023-05-08T05:22:31;100081.22;;;13.99;100.00
26719;BME280;14326;50.794;6.060;2023-05-08T05:28:26;100070.56;;;14.26;100.00
26719;BME280;14326;50.794;6.060;2023-05-08T05:31:26;100078.66;;;14.38;100.00
26719;BME280;14326;50.794;6.060;2023-05-08T05:34:10;100080.47;;;14.57;100.00
26719;BME280;14326;50.794;6.060;2023-05-08T05:36:36;100079.56;;;14.69;100.00
26719;BME280;14326;50.794;6.060;2023-05-08T05:39:03;100085.81;;;14.79;100.00
26719;BME280;14326;50.794;6.060;2023-05-08T05:41:30;100083.16;;;14.83;100.00
26719;BME280;14326;50.794;6.060;2023-05-08T05:44:01;100086.72;;;14.94;100.00
26719;BME280;14326;50.794;6.060;2023-05-08T05:46:28;100084.88;;;15.08;100.00
26719;BME280;14326;50.794;6.060;2023-05-08T05:48:56;100098.28;;;15.25;100.00
26719;BME280;14326;50.794;6.060;2023-05-08T05:51:24;100095.56;;;15.34;100.00
26719;BME280;14326;50.794;6.060;2023-05-08T05:53:51;100098.22;;;15.46;100.00
26719;BME280;14326;50.794;6.060;2023-05-08T05:56:18;100094.63;;;15.56;100.00
26719;BME280;14326;50.794;6.060;2023-05-08T05:58:45;100091.94;;;15.66;100.00
26719;BME280;14326;50.794;6.060;2023-05-08T06:01:12;100103.50;;;15.74;100.00
26719;BME280;14326;50.794;6.060;2023-05-08T06:03:39;100101.69;;;15.79;100.00
26719;BME280;14326;50.794;6.060;2023-05-08T06:06:06;100102.59;;;15.82;100.00
26719;BME280;14326;50.794;6.060;2023-05-08T06:08:34;100101.66;;;15.85;100.00
26719;BME280;14326;50.794;6.060;2023-05-08T06:11:01;100105.25;;;15.88;100.00
26719;BME280;14326;50.794;6.060;2023-05-08T06:13:27;100112.38;;;15.91;100.00
26719;BME280;14326;50.794;6.060;2023-05-08T06:15:54;100115.06;;;15.92;100.00
26719;BME280;14326;50.794;6.060;2023-05-08T06:18:21;100117.72;;;15.94;100.00
26719;BME280;14326;50.794;6.060;2023-05-08T06:20:48;100116.84;;;15.95;100.00
26719;BME280;14326;50.794;6.060;2023-05-08T06:23:15;100115.94;;;15.96;100.00
26719;BME280;14326;50.794;6.060;2023-05-08T06:25:43;100114.13;;;15.98;100.00
26719;BME280;14326;50.794;6.060;2023-05-08T06:28:09;100112.34;;;16.00;100.00
26719;BME280;14326;50.794;6.060;2023-05-08T06:30:36;100121.28;;;16.02;100.00
26719;BME280;14326;50.794;6.060;2023-05-08T06:33:02;100121.22;;;16.08;100.00
26719;BME280;14326;50.794;6.060;2023-05-08T06:35:29;100117.63;;;16.15;100.00
26719;BME280;14326;50.794;6.060;2023-05-08T06:37:56;100120.28;;;16.21;100.00
26719;BME280;14326;50.794;6.060;2023-05-08T06:40:22;100122.03;;;16.28;100.00
26719;BME280;14326;50.794;6.060;2023-05-08T06:42:50;100126.50;;;16.31;100.00
26719;BME280;14326;50.794;6.060;2023-05-08T06:45:17;100125.59;;;16.30;100.00
26719;BME280;14326;50.794;6.060;2023-05-08T06:47:44;100120.19;;;16.32;100.00
26719;BME280;14326;50.794;6.060;2023-05-08T06:50:10;100132.72;;;16.33;100.00
26719;BME280;14326;50.794;6.060;2023-05-08T06:52:37;100128.22;;;16.39;100.00
26719;BME280;14326;50.794;6.060;2023-05-08T06:55:04;100135.34;;;16.44;100.00
26719;BME280;14326;50.794;6.060;2023-05-08T06:57:31;100128.13;;;16.52;100.00
26719;BME280;14326;50.794;6.060;2023-05-08T06:59:59;100124.50;;;16.57;100.00
26719;BME280;14326;50.794;6.060;2023-05-08T07:02:26;100126.25;;;16.69;100.00
26719;BME280;14326;50.794;6.060;2023-05-08T07:04:52;100137.84;;;16.75;100.00
26719;BME280;14326;50.794;6.060;2023-05-08T07:07:19;100131.59;;;16.75;100.00
26719;BME280;14326;50.794;6.060;2023-05-08T07:09:46;100134.28;;;16.76;100.00
26719;BME280;14326;50.794;6.060;2023-05-08T07:12:12;100128.91;;;16.76;100.00
26719;BME280;14326;50.794;6.060;2023-05-08T07:14:41;100132.47;;;16.75;100.00
26719;BME280;14326;50.794;6.060;2023-05-08T07:17:09;100141.41;;;16.81;100.00
26719;BME280;14326;50.794;6.060;2023-05-08T07:19:36;100138.69;;;16.82;100.00
26719;BME280;14326;50.794;6.060;2023-05-08T07:22:03;100139.56;;;16.86;100.00
26719;BME280;14326;50.794;6.060;2023-05-08T07:24:29;100129.69;;;16.89;100.00
26719;BME280;14326;50.794;6.060;2023-05-08T07:26:56;100142.22;;;16.90;100.00
26719;BME280;14326;50.794;6.060;2023-05-08T07:29:24;100143.97;;;16.94;100.00
26719;BME280;14326;50.794;6.060;2023-05-08T07:31:50;100137.72;;;16.95;100.00
26719;BME280;14326;50.794;6.060;2023-05-08T07:34:26;100140.41;;;16.95;100.00
26719;BME280;14326;50.794;6.060;2023-05-08T07:37:15;100142.13;;;16.99;100.00
26719;BME280;14326;50.794;6.060;2023-05-08T07:39:54;100147.56;;;16.96;100.00
26719;BME280;14326;50.794;6.060;2023-05-08T07:42:27;100147.56;;;16.96;100.00
26719;BME280;14326;50.794;6.060;2023-05-08T07:45:10;100152.03;;;16.93;100.00
26719;BME280;14326;50.794;6.060;2023-05-08T07:47:37;100152.06;;;16.91;100.00
26719;BME280;14326;50.794;6.060;2023-05-08T07:50:06;100155.66;;;16.89;100.00
26719;BME280;14326;50.794;6.060;2023-05-08T07:52:52;100149.41;;;16.88;100.00
26719;BME280;14326;50.794;6.060;2023-05-08T07:55:47;100150.28;;;16.90;100.00
26719;BME280;14326;50.794;6.060;2023-05-08T07:58:32;100160.09;;;16.96;100.00
26719;BME280;14326;50.794;6.060;2023-05-08T08:01:04;100151.94;;;17.08;100.00
26719;BME280;14326;50.794;6.060;2023-05-08T08:03:33;100157.22;;;17.18;100.00
26719;BME280;14326;50.794;6.060;2023-05-08T08:06:02;100152.63;;;17.31;100.00
26719;BME280;14326;50.794;6.060;2023-05-08T08:11:36;100148.66;;;17.67;100.00
26719;BME280;14326;50.794;6.060;2023-05-08T08:14:02;100156.59;;;17.79;100.00
26719;BME280;14326;50.794;6.060;2023-05-08T08:16:29;100156.44;;;17.93;100.00
26719;BME280;14326;50.794;6.060;2023-05-08T08:18:56;100160.91;;;17.95;100.00
26719;BME280;14326;50.794;6.060;2023-05-08T08:21:24;100159.91;;;18.02;100.00
26719;BME280;14326;50.794;6.060;2023-05-08T08:23:51;100153.75;;;17.96;100.00
26719;BME280;14326;50.794;6.060;2023-05-08T08:26:18;100152.88;;;17.92;100.00
26719;BME280;14326;50.794;6.060;2023-05-08T08:28:52;100154.56;;;17.99;100.00
26719;BME280;14326;50.794;6.060;2023-05-08T08:31:25;100152.53;;;18.18;100.00
26719;BME280;14326;50.794;6.060;2023-05-08T08:34:05;100151.63;;;18.19;100.00
26719;BME280;14326;50.794;6.060;2023-05-08T08:36:33;100150.69;;;18.20;100.00
26719;BME280;14326;50.794;6.060;2023-05-08T08:39:00;100155.31;;;18.12;100.00
26719;BME280;14326;50.794;6.060;2023-05-08T08:41:27;100149.03;;;18.10;100.00
26719;BME280;14326;50.794;6.060;2023-05-08T08:43:53;100151.69;;;18.15;100.00
26719;BME280;14326;50.794;6.060;2023-05-08T08:46:23;100149.03;;;18.10;100.00
26719;BME280;14326;50.794;6.060;2023-05-08T08:48:53;100150.91;;;18.04;100.00
26719;BME280;14326;50.794;6.060;2023-05-08T08:51:24;100155.19;;;18.21;100.00
26719;BME280;14326;50.794;6.060;2023-05-08T08:54:03;100155.00;;;18.35;100.00
26719;BME280;14326;50.794;6.060;2023-05-08T08:56:31;100155.81;;;18.43;100.00
26719;BME280;14326;50.794;6.060;2023-05-08T08:59:00;100146.78;;;18.46;100.00
26719;BME280;14326;50.794;6.060;2023-05-08T09:01:29;100154.00;;;18.44;100.00
26719;BME280;14326;50.794;6.060;2023-05-08T09:03:57;100146.84;;;18.39;100.00
26719;BME280;14326;50.794;6.060;2023-05-08T09:06:26;100143.22;;;18.44;100.00
26719;BME280;14326;50.794;6.060;2023-05-08T09:08:55;100144.97;;;18.48;100.00
26719;BME280;14326;50.794;6.060;2023-05-08T09:11:22;100138.69;;;18.44;100.00
26719;BME280;14326;50.794;6.060;2023-05-08T09:13:50;100139.56;;;18.46;100.00
26719;BME280;14326;50.794;6.060;2023-05-08T09:16:17;100139.50;;;18.51;100.00
26719;BME280;14326;50.794;6.060;2023-05-08T09:18:49;100131.34;;;18.58;100.00
26719;BME280;14326;50.794;6.060;2023-05-08T09:21:21;100139.72;;;18.97;100.00
26719;BME280;14326;50.794;6.060;2023-05-08T09:23:57;100143.34;;;19.49;96.99
26719;BME280;14326;50.794;6.060;2023-05-08T09:26:28;100134.44;;;19.89;93.65
26719;BME280;14326;50.794;6.060;2023-05-08T09:29:09;100134.78;;;20.15;92.66
26719;BME280;14326;50.794;6.060;2023-05-08T09:31:37;100126.66;;;20.17;90.81
26719;BME280;14326;50.794;6.060;2023-05-08T09:34:25;100125.25;;;19.97;90.28
26719;BME280;14326;50.794;6.060;2023-05-08T09:37:22;100138.22;;;19.80;91.07
26719;BME280;14326;50.794;6.060;2023-05-08T09:39:51;100131.44;;;19.59;92.38
26719;BME280;14326;50.794;6.060;2023-05-08T09:42:18;100133.25;;;19.59;91.44
26719;BME280;14326;50.794;6.060;2023-05-08T09:45:02;100131.56;;;19.53;91.65
26719;BME280;14326;50.794;6.060;2023-05-08T09:47:47;100140.22;;;19.71;91.79
26719;BME280;14326;50.794;6.060;2023-05-08T09:50:13;100137.28;;;19.81;90.25
26719;BME280;14326;50.794;6.060;2023-05-08T09:52:47;100134.19;;;20.01;87.78
26719;BME280;14326;50.794;6.060;2023-05-08T09:55:48;100129.88;;;19.92;88.12
26719;BME280;14326;50.794;6.060;2023-05-08T09:58:15;100135.25;;;19.94;88.82
26719;BME280;14326;50.794;6.060;2023-05-08T10:00:42;100139.06;;;19.84;87.70
26719;BME280;14326;50.794;6.060;2023-05-08T10:03:09;100127.28;;;19.86;88.51
26719;BME280;14326;50.794;6.060;2023-05-08T10:05:35;100138.09;;;19.86;87.70
26719;BME280;14326;50.794;6.060;2023-05-08T10:08:17;100138.50;;;19.67;88.49
26719;BME280;14326;50.794;6.060;2023-05-08T10:10:44;100139.44;;;19.64;89.67
26719;BME280;14326;50.794;6.060;2023-05-08T10:13:17;100130.97;;;19.84;89.28
26719;BME280;14326;50.794;6.060;2023-05-08T10:15:49;100134.84;;;20.14;86.55
26719;BME280;14326;50.794;6.060;2023-05-08T10:18:20;100128.69;;;20.49;85.74
26719;BME280;14326;50.794;6.060;2023-05-08T10:20:50;100118.00;;;20.79;84.76
26719;BME280;14326;50.794;6.060;2023-05-08T10:23:19;100112.97;;;21.01;83.47
26719;BME280;14326;50.794;6.060;2023-05-08T10:25:47;100122.25;;;21.27;81.58
26719;BME280;14326;50.794;6.060;2023-05-08T10:28:25;100126.13;;;21.16;79.98
26719;BME280;14326;50.794;6.060;2023-05-08T10:31:02;100118.94;;;21.15;79.51
26719;BME280;14326;50.794;6.060;2023-05-08T10:33:39;100126.19;;;21.13;78.82
26719;BME280;14326;50.794;6.060;2023-05-08T10:36:17;100123.34;;;21.19;77.38
26719;BME280;14326;50.794;6.060;2023-05-08T10:39:09;100123.53;;;21.10;78.67
26719;BME280;14326;50.794;6.060;2023-05-08T10:41:46;100126.34;;;21.07;82.04
26719;BME280;14326;50.794;6.060;2023-05-08T10:44:15;100128.22;;;21.04;82.70
26719;BME280;14326;50.794;6.060;2023-05-08T10:46:53;100126.81;;;20.89;83.52
26719;BME280;14326;50.794;6.060;2023-05-08T10:49:27;100122.63;;;20.74;83.48
26719;BME280;14326;50.794;6.060;2023-05-08T10:52:08;100117.53;;;20.62;84.52
26719;BME280;14326;50.794;6.060;2023-05-08T10:54:46;100122.25;;;20.53;84.92
26719;BME280;14326;50.794;6.060;2023-05-08T10:57:14;100118.97;;;20.38;83.72
26719;BME280;14326;50.794;6.060;2023-05-08T10:59:45;100121.66;;;20.40;84.40
26719;BME280;14326;50.794;6.060;2023-05-08T11:02:25;100118.97;;;20.38;83.53
26719;BME280;14326;50.794;6.060;2023-05-08T11:05:13;100117.28;;;20.34;84.21
26719;BME280;14326;50.794;6.060;2023-05-08T11:07:52;100119.84;;;20.40;84.15
26719;BME280;14326;50.794;6.060;2023-05-08T11:10:19;100115.81;;;20.60;84.19
26719;BME280;14326;50.794;6.060;2023-05-08T11:12:48;100102.31;;;20.95;83.23
26719;BME280;14326;50.794;6.060;2023-05-08T11:15:34;100109.44;;;21.33;82.10
26719;BME280;14326;50.794;6.060;2023-05-08T11:18:03;100105.19;;;21.57;79.00
26719;BME280;14326;50.794;6.060;2023-05-08T11:20:37;100095.28;;;21.56;77.84
26719;BME280;14326;50.794;6.060;2023-05-08T11:23:22;100095.56;;;21.45;78.03
26719;BME280;14326;50.794;6.060;2023-05-08T11:26:00;100094.19;;;21.31;78.66
26719;BME280;14326;50.794;6.060;2023-05-08T11:28:36;100100.94;;;21.13;78.71
26719;BME280;14326;50.794;6.060;2023-05-08T11:31:07;100102.69;;;21.15;78.19
26719;BME280;14326;50.794;6.060;2023-05-08T11:33:35;100097.16;;;21.54;76.94
26719;BME280;14326;50.794;6.060;2023-05-08T11:36:11;100087.66;;;22.02;73.88
26719;BME280;14326;50.794;6.060;2023-05-08T11:38:39;100089.50;;;22.30;71.51
26719;BME280;14326;50.794;6.060;2023-05-08T11:41:08;100094.22;;;22.53;71.92
26719;BME280;14326;50.794;6.060;2023-05-08T11:46:42;100081.84;;;22.73;70.09
26719;BME280;14326;50.794;6.060;2023-05-08T11:49:12;100082.16;;;22.91;68.48
26719;BME280;14326;50.794;6.060;2023-05-08T11:51:41;100080.63;;;22.82;69.26
26719;BME280;14326;50.794;6.060;2023-05-08T11:54:11;100080.31;;;22.63;70.72
26719;BME280;14326;50.794;6.060;2023-05-08T11:56:37;100085.72;;;22.63;70.31
26719;BME280;14326;50.794;6.060;2023-05-08T11:59:05;100087.78;;;22.84;69.95
26719;BME280;14326;50.794;6.060;2023-05-08T12:01:33;100084.47;;;22.75;68.69
26719;BME280;14326;50.794;6.060;2023-05-08T12:04:03;100083.75;;;22.68;70.71
26719;BME280;14326;50.794;6.060;2023-05-08T12:06:30;100079.22;;;22.97;68.17
26719;BME280;14326;50.794;6.060;2023-05-08T12:08:58;100082.50;;;23.06;68.34
26719;BME280;14326;50.794;6.060;2023-05-08T12:11:24;100073.63;;;22.75;68.11
26719;BME280;14326;50.794;6.060;2023-05-08T12:13:52;100078.31;;;22.68;68.71
26719;BME280;14326;50.794;6.060;2023-05-08T12:16:21;100077.03;;;22.81;67.95
26719;BME280;14326;50.794;6.060;2023-05-08T12:18:49;100077.53;;;22.65;69.66
26719;BME280;14326;50.794;6.060;2023-05-08T12:21:18;100086.97;;;22.81;67.59
26719;BME280;14326;50.794;6.060;2023-05-08T12:23:45;100089.41;;;22.90;67.03
26719;BME280;14326;50.794;6.060;2023-05-08T12:26:12;100076.41;;;22.73;66.42
26719;BME280;14326;50.794;6.060;2023-05-08T12:28:38;100072.53;;;22.53;68.08
26719;BME280;14326;50.794;6.060;2023-05-08T12:31:05;100072.03;;;22.40;68.73
26719;BME280;14326;50.794;6.060;2023-05-08T12:33:33;100073.91;;;22.38;67.84
26719;BME280;14326;50.794;6.060;2023-05-08T12:36:00;100072.16;;;22.35;67.83
26719;BME280;14326;50.794;6.060;2023-05-08T12:38:28;100073.28;;;22.28;67.49
26719;BME280;14326;50.794;6.060;2023-05-08T12:40:55;100078.25;;;22.43;67.99
26719;BME280;14326;50.794;6.060;2023-05-08T12:43:30;100072.56;;;22.51;66.58
26719;BME280;14326;50.794;6.060;2023-05-08T12:45:57;100078.41;;;22.67;66.79
26719;BME280;14326;50.794;6.060;2023-05-08T12:48:23;100068.63;;;22.61;67.47
26719;BME280;14326;50.794;6.060;2023-05-08T12:50:50;100065.31;;;22.24;67.11
26719;BME280;14326;50.794;6.060;2023-05-08T12:53:18;100065.16;;;21.99;68.66
26719;BME280;14326;50.794;6.060;2023-05-08T12:55:51;100055.94;;;22.06;69.11
26719;BME280;14326;50.794;6.060;2023-05-08T12:58:19;100057.94;;;21.99;70.89
26719;BME280;14326;50.794;6.060;2023-05-08T13:00:50;100059.88;;;21.94;70.38
26719;BME280;14326;50.794;6.060;2023-05-08T13:03:21;100047.66;;;21.49;76.21
26719;BME280;14326;50.794;6.060;2023-05-08T13:05:49;100059.34;;;20.83;81.06
26719;BME280;14326;50.794;6.060;2023-05-08T13:08:15;100052.69;;;20.61;83.61
26719;BME280;14326;50.794;6.060;2023-05-08T13:10:46;100055.09;;;20.36;85.60
26719;BME280;14326;50.794;6.060;2023-05-08T13:13:17;100054.97;;;20.40;85.58
26719;BME280;14326;50.794;6.060;2023-05-08T13:15:45;100050.97;;;20.18;86.43
26719;BME280;14326;50.794;6.060;2023-05-08T13:18:14;100051.69;;;19.86;87.29
26719;BME280;14326;50.794;6.060;2023-05-08T13:20:41;100056.28;;;19.83;90.05
26719;BME280;14326;50.794;6.060;2023-05-08T13:23:09;100044.47;;;19.87;88.50
26719;BME280;14326;50.794;6.060;2023-05-08T13:25:36;100035.59;;;19.82;88.78
26719;BME280;14326;50.794;6.060;2023-05-08T13:28:04;100042.94;;;19.74;90.40
26719;BME280;14326;50.794;6.060;2023-05-08T13:30:47;100040.19;;;19.78;91.18
26719;BME280;14326;50.794;6.060;2023-05-08T13:33:14;100038.31;;;19.80;89.76
26719;BME280;14326;50.794;6.060;2023-05-08T13:35:40;100047.50;;;19.73;89.56
26719;BME280;14326;50.794;6.060;2023-05-08T13:38:07;100042.81;;;19.80;90.21
26719;BME280;14326;50.794;6.060;2023-05-08T13:40:34;100029.56;;;19.69;90.24